Hlavní strana
METAR-TAF:

METAR-TAF

Letiště :

Çorlu, Turecko

zeměpisná šířka: 41-08N, zeměpisná délka: 027-55E, výška: 173 m

Aktuální stav počasí

Zpráva byla vytvořena před 39 minutami, v 21:20 UTC
Bezvětří
Teplota 4°C
Vlhkost vzduchu 87%
Tlak 1019 hPa
Viditelnost 10 km a více
Žádná oblačnost pod 1500 m, nevyskytují se cumulonimby.

METAR: LTBU 182120Z 00000KT CAVOK 04/02 Q1019 RMK RWY22 00000KT

Čas: 00:59 (21:59 UTC)

Předpověď počasí

Zpráva byla vytvořena před 5 hodinami a 19 minutami, v 16:40 UTC
Předpověď platná od 18 v 18 UTC do 19 v 18 UTC
vítr z různých směrů 2 kt
Viditelnost 10 km a více
Žádná oblačnost pod 1500 m, nevyskytují se cumulonimby.
Změna
od 19 v 02 UTC do 19 v 05 UTC
Viditelnost: 4000 m
Polojasno ve výšce 1200 ft
kouřmo
Změna
od 19 v 05 UTC do 19 v 08 UTC
Viditelnost 10 km a více

TAF: LTBU 181640Z 1818/1918 VRB02KT CAVOK BECMG 1902/1905 4000 BR SCT012 BECMG 1905/1908 9999 NSW

Stav a předpovědi počasí z více než 4 000 letišť (zprávy METAR a TAF).

Červené a žluté tečky na mapě představují dostupné meteorologické stanice.

Když kurzor umístíte na tečku, zobrazí se název stanice.

Pak kliknutím zobrazíte stav a předpověď počasí.

Chcete-li změnit mapu, kliknutím na zelené tlačítko se znaménkem +mapu přiblížíte, kliknutím na zelené tlačítko se znaménkem – mapu oddálíte a kliknutím na zelené šipky přejdete na sousední mapy.


METAR-TAF: